»·PEaware :: OH-CTP KLAX-KSAN

OH-CTP :: KLAX-KSAN

FLIGHT INFORMATION

Flight Status: Arrived
Operator: Privately registered:
Finland
More flights under this callsign
Pilot: Anonymous 19881 (19881)
Aircraft: CESSNA 172 SKYHAWK
(C172)
More flights by this aircraft type
Origin: KLAX Los Angeles Intl
United States
Destination: KSAN San Diego Intl-Lindbergh
United States
More flights between these airports :: More routes between these airports
Route:
File this flight plan on PilotEdge
Remarks: CAT-11 rating
Altitude:
(Current/Filed)
5,500ft
Speed:
(Current/Filed)
90kts
Departed: 01-Oct-18 01:40 PM
Arrived: 01-Oct-18 02:54 PM
Distance/Time
Traveled:
95nm/1:14
Distance/Time
To Go:
Arrived

Flight Plot

Page will automatically refresh every two minutes.


Map Options




Map Legend


Flown Route
Filed Route
Departure Airport
Arrival Airport
Navaid (VOR, NDB)
Fix

Horizontal Profiles

Position Reports

Time Latitude Longitude Heading Altitude Ground
Speed
01-Oct-18 13:26 33.932652 -118.397940 354 129ft 0kts
01-Oct-18 13:27 33.932652 -118.397940 354 129ft 0kts
01-Oct-18 13:28 33.932652 -118.397940 354 129ft 0kts
01-Oct-18 13:29 33.932652 -118.397940 354 129ft 0kts
01-Oct-18 13:30 33.932652 -118.397940 354 129ft 0kts
01-Oct-18 13:31 33.933988 -118.398120 351 129ft 0kts
01-Oct-18 13:32 33.933988 -118.398120 351 129ft 0kts
01-Oct-18 13:33 33.933988 -118.398120 351 129ft 0kts
01-Oct-18 13:34 33.934249 -118.398165 353 129ft 11kts
01-Oct-18 13:35 33.935039 -118.393631 92 129ft 15kts
01-Oct-18 13:36 33.935447 -118.389464 80 129ft 6kts
01-Oct-18 13:37 33.935902 -118.385041 82 129ft 19kts
01-Oct-18 13:38 33.936510 -118.382772 0 129ft 0kts
01-Oct-18 13:39 33.936510 -118.382772 0 129ft 0kts
01-Oct-18 13:40 33.936510 -118.382772 0 129ft 0kts
01-Oct-18 13:41 33.937169 -118.382889 343 129ft 6kts
01-Oct-18 13:42 33.935888 -118.404264 265 517ft 97kts
01-Oct-18 13:43 33.934571 -118.438662 266 1165ft 103kts
01-Oct-18 13:44 33.933438 -118.472574 266 1856ft 101kts
01-Oct-18 13:45 33.932513 -118.506209 266 2554ft 100kts
01-Oct-18 13:46 33.931814 -118.540509 266 3007ft 110kts
01-Oct-18 13:47 33.931249 -118.577139 266 3009ft 109kts
01-Oct-18 13:48 33.930735 -118.613410 266 3008ft 106kts
01-Oct-18 13:49 33.930291 -118.648444 266 3009ft 103kts
01-Oct-18 13:50 33.912053 -118.658158 151 3219ft 105kts
01-Oct-18 13:51 33.885978 -118.638331 150 3509ft 124kts
01-Oct-18 13:52 33.859431 -118.618060 151 3508ft 109kts
01-Oct-18 13:53 33.833990 -118.598377 150 3559ft 110kts
01-Oct-18 13:54 33.808623 -118.578493 150 4162ft 109kts
01-Oct-18 13:55 33.782165 -118.557747 150 4503ft 125kts
01-Oct-18 13:56 33.753921 -118.535921 151 4501ft 111kts
01-Oct-18 13:57 33.728069 -118.516039 150 4445ft 107kts
01-Oct-18 13:58 33.703443 -118.497450 150 4452ft 105kts
01-Oct-18 13:59 33.678738 -118.479142 150 4457ft 105kts
01-Oct-18 14:00 33.653635 -118.460804 150 4461ft 105kts
01-Oct-18 14:01 33.628346 -118.442506 150 4464ft 111kts
01-Oct-18 14:02 33.600816 -118.422816 150 4590ft 117kts
01-Oct-18 14:03 33.583920 -118.391942 102 4894ft 120kts
01-Oct-18 14:04 33.563800 -118.360542 131 5119ft 114kts
01-Oct-18 14:05 33.553831 -118.328371 103 4953ft 105kts
01-Oct-18 14:06 33.538673 -118.300137 132 5343ft 101kts
01-Oct-18 14:07 33.519447 -118.272785 132 5693ft 109kts
01-Oct-18 14:08 33.500564 -118.246120 132 6329ft 105kts
01-Oct-18 14:09 33.481412 -118.219309 132 6819ft 109kts
01-Oct-18 14:10 33.461622 -118.191666 132 7317ft 108kts
01-Oct-18 14:11 33.440382 -118.162115 132 7447ft 127kts
01-Oct-18 14:12 33.417079 -118.129691 131 7444ft 131kts
01-Oct-18 14:13 33.393876 -118.097396 132 7532ft 125kts
01-Oct-18 14:14 33.370825 -118.065269 134 7499ft 127kts
01-Oct-18 14:15 33.349323 -118.035449 134 7498ft 115kts
01-Oct-18 14:16 33.339104 -117.999224 101 7497ft 121kts
01-Oct-18 14:17 33.334741 -117.959065 101 7390ft 120kts
01-Oct-18 14:18 33.330313 -117.918707 100 7441ft 124kts
01-Oct-18 14:19 33.322745 -117.878792 112 7494ft 123kts
01-Oct-18 14:20 33.300451 -117.849716 140 7492ft 120kts
01-Oct-18 14:21 33.276341 -117.821516 139 7490ft 122kts
01-Oct-18 14:22 33.252372 -117.793394 139 7490ft 122kts
01-Oct-18 14:23 33.228122 -117.764937 139 7490ft 122kts
01-Oct-18 14:24 33.203887 -117.736513 139 7490ft 122kts
01-Oct-18 14:25 33.179791 -117.708269 139 7518ft 121kts
01-Oct-18 14:26 33.155539 -117.679875 139 7518ft 122kts
01-Oct-18 14:27 33.131199 -117.651396 139 7518ft 122kts
01-Oct-18 14:28 33.106973 -117.623072 139 7518ft 122kts
01-Oct-18 14:29 33.084295 -117.596798 141 6540ft 110kts
01-Oct-18 14:30 33.062503 -117.593850 262 5239ft 95kts
01-Oct-18 14:31 33.055301 -117.622946 237 3943ft 96kts
01-Oct-18 14:32 33.035090 -117.636163 187 3517ft 79kts
01-Oct-18 14:33 33.014334 -117.635645 187 3364ft 82kts
01-Oct-18 14:34 32.988912 -117.635928 186 2922ft 101kts
01-Oct-18 14:35 32.958647 -117.637436 180 2338ft 113kts
01-Oct-18 14:36 32.930695 -117.623065 123 1748ft 118kts
01-Oct-18 14:37 32.914213 -117.592364 121 1512ft 95kts
01-Oct-18 14:38 32.912743 -117.559448 54 1514ft 108kts
01-Oct-18 14:39 32.927843 -117.528604 53 1514ft 107kts
01-Oct-18 14:40 32.948475 -117.504624 35 1507ft 104kts
01-Oct-18 14:41 32.970773 -117.482551 35 1664ft 107kts
01-Oct-18 14:42 32.985991 -117.451143 63 2266ft 112kts
01-Oct-18 14:43 32.995753 -117.416696 84 2860ft 112kts
01-Oct-18 14:44 32.990458 -117.381753 132 3447ft 113kts
01-Oct-18 14:45 32.966736 -117.355434 135 3500ft 117kts
01-Oct-18 14:46 32.939257 -117.336212 151 3500ft 118kts
01-Oct-18 14:47 32.910156 -117.317485 151 3499ft 120kts
01-Oct-18 14:48 32.881234 -117.298573 151 3498ft 121kts
01-Oct-18 14:49 32.853695 -117.275065 140 3498ft 123kts
01-Oct-18 14:50 32.827247 -117.249037 141 3498ft 124kts
01-Oct-18 14:51 32.801014 -117.222413 141 3500ft 125kts
01-Oct-18 14:52 32.772796 -117.200126 164 3500ft 122kts
01-Oct-18 14:53 32.747657 -117.194597 113 2427ft 79kts
01-Oct-18 14:54 32.739270 -117.171381 115 1231ft 79kts
01-Oct-18 14:55 32.729759 -117.174058 287 133ft 54kts
01-Oct-18 14:56 32.733009 -117.186592 286 21ft 19kts
01-Oct-18 14:57 32.734034 -117.188015 45 21ft 0kts
01-Oct-18 14:58 32.734030 -117.186878 109 21ft 18kts
01-Oct-18 14:59 32.733289 -117.183802 101 21ft 19kts
01-Oct-18 15:00 32.734114 -117.184951 301 21ft 0kts

Navigation Log

Ident Type
1. KLAX Airport
2. KSAN Airport